Time;durP1;ratioP1;P1;durP2;ratioP2;P2;SDS_P1;SDS_P2;PMS_P1;PMS_P2;Temp;Humidity;BMP_temperature;BMP_pressure;BME280_temperature;BME280_humidity;BME280_pressure;Samples;Min_cycle;Max_cycle;Signal;HPM_P1;HPM_P2
2022/06/30 00:00:12;;;;;;;12.52;6.72;;;23.10;99.90;;;;;;5026707;28;20068;-92
2022/06/30 00:02:39;;;;;;;23.20;6.90;;;23.10;99.90;;;;;;5032358;28;20029;-92
2022/06/30 00:05:05;;;;;;;16.17;6.47;;;23.10;99.90;;;;;;5030886;28;20049;-91
2022/06/30 00:07:31;;;;;;;16.58;7.45;;;23.10;99.90;;;;;;5032691;28;20032;-91
2022/06/30 00:09:57;;;;;;;23.33;7.20;;;23.00;99.90;;;;;;5022429;28;20396;-92
2022/06/30 00:12:23;;;;;;;16.65;6.45;;;23.00;99.90;;;;;;5031872;28;20037;-91
2022/06/30 00:14:49;;;;;;;16.88;6.28;;;23.00;99.90;;;;;;5026469;28;20030;-91
2022/06/30 00:17:14;;;;;;;15.40;6.00;;;23.00;99.90;;;;;;5011113;28;20053;-92
2022/06/30 00:19:41;;;;;;;15.52;6.85;;;22.90;99.90;;;;;;5022958;28;20400;-93
2022/06/30 00:22:07;;;;;;;19.77;7.47;;;22.90;99.90;;;;;;5032037;28;20112;-93
2022/06/30 00:24:34;;;;;;;14.68;6.55;;;22.90;99.90;;;;;;5030896;28;20018;-92
2022/06/30 00:26:59;;;;;;;19.30;6.63;;;22.90;99.90;;;;;;5024806;28;20073;-91
2022/06/30 00:29:25;;;;;;;15.00;6.45;;;22.80;99.90;;;;;;5029351;28;20022;-92
2022/06/30 00:31:51;;;;;;;15.88;7.03;;;22.80;99.90;;;;;;5022067;28;20080;-93
2022/06/30 00:34:17;;;;;;;11.25;6.45;;;22.80;99.90;;;;;;5018942;28;20057;-93
2022/06/30 00:36:43;;;;;;;12.07;5.80;;;22.80;99.90;;;;;;5031389;28;20033;-93
2022/06/30 00:39:10;;;;;;;16.45;6.05;;;22.80;99.90;;;;;;5032397;28;20112;-93
2022/06/30 00:41:40;;;;;;;13.05;6.38;;;22.80;99.90;;;;;;5032625;28;20060;-92
2022/06/30 00:44:07;;;;;;;22.83;6.65;;;22.80;99.90;;;;;;5032867;28;20045;-93
2022/06/30 00:46:33;;;;;;;13.43;7.07;;;22.80;99.90;;;;;;5032101;28;20025;-94
2022/06/30 00:49:00;;;;;;;14.60;7.32;;;22.80;99.90;;;;;;5031613;28;20048;-93
2022/06/30 00:51:26;;;;;;;12.73;6.32;;;22.80;99.90;;;;;;5033917;28;20041;-94
2022/06/30 00:53:54;;;;;;;25.63;6.60;;;22.80;99.90;;;;;;5028921;28;20286;-94
2022/06/30 00:56:21;;;;;;;16.40;6.53;;;22.80;99.90;;;;;;5032209;28;20136;-95
2022/06/30 00:58:48;;;;;;;14.98;6.65;;;22.80;99.90;;;;;;5033184;28;20164;-93
2022/06/30 01:01:17;;;;;;;16.55;6.22;;;22.70;99.90;;;;;;5032542;28;20041;-92
2022/06/30 01:03:44;;;;;;;19.83;7.10;;;22.80;99.90;;;;;;5031391;28;20022;-92
2022/06/30 01:06:10;;;;;;;15.88;7.00;;;22.70;99.90;;;;;;5031728;28;20029;-93
2022/06/30 01:08:36;;;;;;;16.10;7.22;;;22.70;99.90;;;;;;5030715;28;20087;-91
2022/06/30 01:13:48;;;;;;;18.63;6.95;;;22.70;99.90;;;;;;5030840;28;20550;-96
2022/06/30 01:16:14;;;;;;;14.88;7.07;;;22.70;99.90;;;;;;5017798;28;20037;-91
2022/06/30 01:18:40;;;;;;;12.88;6.63;;;22.70;99.90;;;;;;5032187;28;21237;-93
2022/06/30 01:21:06;;;;;;;15.13;6.28;;;22.60;99.90;;;;;;5032838;28;20025;-94
2022/06/30 01:23:32;;;;;;;15.25;6.55;;;22.60;99.90;;;;;;5031402;28;20026;-93
2022/06/30 01:25:57;;;;;;;18.00;6.78;;;22.60;99.90;;;;;;5028093;28;20029;-95
2022/06/30 01:28:23;;;;;;;13.95;6.82;;;22.60;99.90;;;;;;5012227;28;20722;-91
2022/06/30 01:30:49;;;;;;;13.95;6.97;;;22.60;99.90;;;;;;5031271;28;20072;-94
2022/06/30 01:33:14;;;;;;;12.57;6.32;;;22.60;99.90;;;;;;5032655;28;20104;-94
2022/06/30 01:35:40;;;;;;;14.52;7.45;;;22.50;99.90;;;;;;5031436;28;20396;-94
2022/06/30 01:38:06;;;;;;;12.93;6.50;;;22.50;99.90;;;;;;5032587;28;20052;-94
2022/06/30 01:40:35;;;;;;;13.45;6.72;;;22.50;99.90;;;;;;5028091;28;20047;-91
2022/06/30 01:43:06;;;;;;;14.95;6.55;;;22.50;99.90;;;;;;5035560;28;20105;-92
2022/06/30 01:45:32;;;;;;;17.85;7.18;;;22.60;99.90;;;;;;5032882;28;20108;-92
2022/06/30 01:47:58;;;;;;;15.10;6.40;;;22.50;99.90;;;;;;5035649;28;20029;-92
2022/06/30 01:50:26;;;;;;;18.30;6.88;;;22.50;99.90;;;;;;5034747;28;20128;-93
2022/06/30 01:52:53;;;;;;;14.45;6.68;;;22.60;99.90;;;;;;5034647;28;20013;-94
2022/06/30 01:55:19;;;;;;;13.80;6.68;;;22.50;99.90;;;;;;5031492;28;20046;-92
2022/06/30 01:57:45;;;;;;;17.58;7.55;;;22.50;99.90;;;;;;5015388;28;20041;-93
2022/06/30 02:00:17;;;;;;;14.98;6.53;;;22.50;99.90;;;;;;5022944;28;20021;-93
2022/06/30 02:02:43;;;;;;;17.95;6.80;;;22.40;99.90;;;;;;5036023;28;20499;-94
2022/06/30 02:05:10;;;;;;;16.92;6.85;;;22.40;99.90;;;;;;5028758;28;20026;-93
2022/06/30 02:07:36;;;;;;;17.98;6.65;;;22.40;99.90;;;;;;5019787;28;20507;-92
2022/06/30 02:10:29;;;;;;;17.70;6.63;;;22.40;99.90;;;;;;5021793;28;20014;-93
2022/06/30 02:12:54;;;;;;;14.73;7.07;;;22.40;99.90;;;;;;5012749;28;20046;-94
2022/06/30 02:15:21;;;;;;;15.27;6.40;;;22.40;99.90;;;;;;5019052;28;20076;-95
2022/06/30 02:17:52;;;;;;;14.85;7.40;;;22.40;99.90;;;;;;5034182;28;20132;-96
2022/06/30 02:20:21;;;;;;;19.00;6.45;;;22.40;99.90;;;;;;5029774;28;20014;-95
2022/06/30 02:22:49;;;;;;;15.10;6.85;;;22.40;99.90;;;;;;5032246;28;20030;-95
2022/06/30 02:25:16;;;;;;;18.45;7.03;;;22.40;99.90;;;;;;5048650;28;20021;-95
2022/06/30 02:27:42;;;;;;;17.33;6.95;;;22.30;99.90;;;;;;5041545;28;20159;-96
2022/06/30 02:30:08;;;;;;;18.65;7.30;;;22.20;99.90;;;;;;5040513;28;20041;-96
2022/06/30 02:32:34;;;;;;;18.05;7.07;;;22.30;99.90;;;;;;5076520;22;20084;-96
2022/06/30 02:35:00;;;;;;;16.05;6.65;;;22.20;99.90;;;;;;5067684;28;20028;-95
2022/06/30 02:37:25;;;;;;;14.32;6.65;;;22.20;99.90;;;;;;5075948;28;20041;-95
2022/06/30 02:39:51;;;;;;;20.30;7.20;;;22.20;99.90;;;;;;5073756;28;20029;-94
2022/06/30 02:42:18;;;;;;;16.50;7.03;;;22.20;99.90;;;;;;5063976;28;20020;-93
2022/06/30 02:44:44;;;;;;;22.48;7.13;;;22.20;99.90;;;;;;5074749;28;20046;-95
2022/06/30 02:47:09;;;;;;;12.05;6.57;;;22.20;99.90;;;;;;5075666;28;20005;-95
2022/06/30 02:49:37;;;;;;;23.23;7.40;;;22.20;99.90;;;;;;5077808;28;20475;-96
2022/06/30 02:52:03;;;;;;;21.77;7.32;;;22.20;99.90;;;;;;5039172;28;20029;-96
2022/06/30 02:54:29;;;;;;;16.95;7.63;;;22.10;99.90;;;;;;5034767;28;20028;-96
2022/06/30 02:56:54;;;;;;;15.38;6.85;;;22.10;99.90;;;;;;5035655;28;20033;-95
2022/06/30 02:59:20;;;;;;;17.23;6.75;;;22.10;99.90;;;;;;5050410;28;20024;-96
2022/06/30 03:01:46;;;;;;;15.93;6.82;;;22.10;99.90;;;;;;5068920;28;20013;-96
2022/06/30 03:04:11;;;;;;;19.35;7.05;;;22.10;99.90;;;;;;5063159;28;20119;-96
2022/06/30 03:06:37;;;;;;;17.00;7.38;;;22.10;99.90;;;;;;5072475;28;20021;-96
2022/06/30 03:09:03;;;;;;;14.75;7.00;;;22.10;99.90;;;;;;5104226;22;20499;-93
2022/06/30 03:11:29;;;;;;;15.82;6.32;;;22.10;99.90;;;;;;5146779;22;20896;-96
2022/06/30 03:16:23;;;;;;;13.30;6.75;;;22.00;99.90;;;;;;5010863;28;20046;-94
2022/06/30 03:18:49;;;;;;;18.33;6.75;;;22.10;99.90;;;;;;5015407;28;20021;-96
2022/06/30 03:21:14;;;;;;;14.07;6.47;;;22.00;99.90;;;;;;4994152;28;20227;-95
2022/06/30 03:23:40;;;;;;;19.20;6.95;;;22.10;99.90;;;;;;5013823;28;20026;-96
2022/06/30 03:26:06;;;;;;;14.93;6.65;;;22.10;99.90;;;;;;4979385;28;20026;-95
2022/06/30 03:28:32;;;;;;;13.85;7.07;;;22.10;99.90;;;;;;4995274;28;20027;-94
2022/06/30 03:30:59;;;;;;;14.40;6.82;;;22.10;99.90;;;;;;4979534;28;20027;-96
2022/06/30 03:33:25;;;;;;;13.82;7.55;;;22.10;99.90;;;;;;5014157;28;20076;-95
2022/06/30 03:35:52;;;;;;;14.35;6.63;;;22.10;99.90;;;;;;5003289;28;20054;-94
2022/06/30 03:38:18;;;;;;;22.13;7.10;;;22.10;99.90;;;;;;4994913;28;20038;-95
2022/06/30 03:40:43;;;;;;;14.85;6.30;;;22.10;99.90;;;;;;4996996;28;20517;-94
2022/06/30 03:43:10;;;;;;;14.75;6.45;;;22.10;99.90;;;;;;4993167;28;20113;-96
2022/06/30 03:45:36;;;;;;;16.42;6.88;;;22.10;99.90;;;;;;4995709;28;20037;-96
2022/06/30 03:48:06;;;;;;;16.40;6.38;;;22.10;99.90;;;;;;4995100;28;20018;-93
2022/06/30 03:50:33;;;;;;;24.90;6.45;;;22.20;99.90;;;;;;5009522;28;20046;-96
2022/06/30 03:53:00;;;;;;;18.23;6.35;;;22.20;99.90;;;;;;4979685;28;20086;-96
2022/06/30 03:55:27;;;;;;;26.10;6.75;;;22.20;99.90;;;;;;5003307;28;20030;-95
2022/06/30 03:57:52;;;;;;;13.45;6.35;;;22.30;99.90;;;;;;4994157;28;20516;-90
2022/06/30 04:00:18;;;;;;;14.00;6.65;;;22.30;99.90;;;;;;4976798;28;20026;-93
2022/06/30 04:02:45;;;;;;;11.63;5.63;;;22.40;99.90;;;;;;5001842;28;20030;-94
2022/06/30 04:05:10;;;;;;;13.48;6.22;;;22.40;99.90;;;;;;5007120;28;20029;-95
2022/06/30 04:07:43;;;;;;;12.07;6.72;;;22.50;99.90;;;;;;5033358;28;20479;-94
2022/06/30 04:10:12;;;;;;;17.42;6.85;;;22.50;99.90;;;;;;5007624;28;20030;-96
2022/06/30 04:12:38;;;;;;;13.13;6.38;;;22.60;99.90;;;;;;5016145;28;20022;-96
2022/06/30 04:15:05;;;;;;;14.98;5.80;;;22.60;99.90;;;;;;5020362;28;20056;-96
2022/06/30 04:17:34;;;;;;;18.42;6.70;;;22.70;99.90;;;;;;5034525;28;20048;-94
2022/06/30 04:20:05;;;;;;;13.18;6.03;;;22.80;99.90;;;;;;5032328;28;20036;-95
2022/06/30 04:22:31;;;;;;;13.77;6.15;;;22.90;99.90;;;;;;5000319;28;20033;-94
2022/06/30 04:24:57;;;;;;;14.27;5.80;;;22.90;99.90;;;;;;5020304;28;20037;-94
2022/06/30 04:27:23;;;;;;;18.92;6.03;;;23.00;99.90;;;;;;5015556;28;20030;-92
2022/06/30 04:29:48;;;;;;;18.67;5.82;;;23.10;99.90;;;;;;5036136;28;20033;-95
2022/06/30 04:34:58;;;;;;;17.83;6.40;;;23.30;99.90;;;;;;5035930;28;20085;-95
2022/06/30 04:37:24;;;;;;;16.13;5.72;;;23.30;99.90;;;;;;5059604;23;20030;-94
2022/06/30 04:41:23;;;;;;;12.65;5.82;;;23.40;99.90;;;;;;5251255;22;20452;-96
2022/06/30 04:42:36;;;;;;;14.30;5.72;;;23.40;99.90;;;;;;5069503;28;20029;-96
2022/06/30 04:45:02;;;;;;;20.42;6.07;;;23.50;99.90;;;;;;5100743;22;20108;-96
2022/06/30 04:47:27;;;;;;;15.65;5.57;;;23.50;99.90;;;;;;5102164;28;20040;-96
2022/06/30 04:49:54;;;;;;;18.73;6.00;;;23.50;99.90;;;;;;5065990;28;20426;-95
2022/06/30 04:52:20;;;;;;;15.18;5.90;;;23.70;99.90;;;;;;5086684;28;20028;-95
2022/06/30 04:54:46;;;;;;;12.65;5.03;;;23.80;99.90;;;;;;5093779;28;20132;-95
2022/06/30 04:57:11;;;;;;;27.05;6.82;;;23.90;99.90;;;;;;5093491;28;20036;-95
2022/06/30 04:59:37;;;;;;;23.95;6.53;;;23.90;99.90;;;;;;5095232;28;20563;-96
2022/06/30 05:02:03;;;;;;;13.43;5.70;;;24.00;99.90;;;;;;5089679;28;20028;-90
2022/06/30 05:04:29;;;;;;;14.35;5.88;;;24.10;99.90;;;;;;5090571;28;20085;-93
2022/06/30 05:06:55;;;;;;;16.85;5.65;;;24.20;99.90;;;;;;5082654;28;20029;-94
2022/06/30 05:09:20;;;;;;;13.35;5.70;;;24.30;99.90;;;;;;5079538;28;20016;-93
2022/06/30 05:11:46;;;;;;;14.38;5.20;;;24.30;99.90;;;;;;5061053;28;20031;-92
2022/06/30 05:14:12;;;;;;;21.52;5.53;;;24.40;99.90;;;;;;5070374;28;20109;-95
2022/06/30 05:16:37;;;;;;;14.10;5.28;;;24.50;99.90;;;;;;5074882;28;20028;-95
2022/06/30 05:19:03;;;;;;;12.80;5.22;;;24.60;99.90;;;;;;5079489;28;20111;-95
2022/06/30 05:21:30;;;;;;;59.45;8.98;;;24.60;99.90;;;;;;5072549;28;20103;-96
2022/06/30 05:26:40;;;;;;;18.65;5.45;;;24.70;99.90;;;;;;5088095;28;20544;-92
2022/06/30 05:29:06;;;;;;;12.20;4.63;;;24.80;99.90;;;;;;5091027;28;20021;-91
2022/06/30 05:31:31;;;;;;;13.45;4.95;;;24.90;99.90;;;;;;5075886;28;20048;-91
2022/06/30 05:33:57;;;;;;;12.32;5.30;;;25.00;99.90;;;;;;5078606;28;20035;-95
2022/06/30 05:36:23;;;;;;;18.13;5.38;;;25.00;99.90;;;;;;5101714;28;20028;-94
2022/06/30 05:38:48;;;;;;;12.10;4.75;;;25.10;99.90;;;;;;5099875;28;20035;-95
2022/06/30 05:41:14;;;;;;;20.27;5.47;;;25.10;99.90;;;;;;5098520;28;20024;-94
2022/06/30 05:43:40;;;;;;;14.57;5.25;;;25.20;99.90;;;;;;5098349;28;21874;-96
2022/06/30 05:46:05;;;;;;;16.65;5.43;;;25.30;99.90;;;;;;5061990;28;20049;-95
2022/06/30 05:48:31;;;;;;;19.33;5.43;;;25.40;99.90;;;;;;5058400;28;20021;-92
2022/06/30 05:50:57;;;;;;;18.70;5.32;;;25.40;99.90;;;;;;5045728;28;20040;-90
2022/06/30 05:53:23;;;;;;;17.30;5.70;;;25.50;99.90;;;;;;5095133;28;20046;-93
2022/06/30 05:55:48;;;;;;;15.73;5.68;;;25.60;99.90;;;;;;5081007;28;20189;-93
2022/06/30 05:58:16;;;;;;;20.00;5.28;;;25.70;99.90;;;;;;5076139;28;20052;-93
2022/06/30 06:00:42;;;;;;;18.63;5.32;;;25.70;99.90;;;;;;5090182;28;20020;-88
2022/06/30 06:03:08;;;;;;;12.70;4.93;;;25.80;99.90;;;;;;5094073;28;20027;-87
2022/06/30 06:05:33;;;;;;;19.45;5.97;;;25.80;99.90;;;;;;5081414;28;20048;-92
2022/06/30 06:08:10;;;;;;;13.05;5.78;;;25.90;99.90;;;;;;5057169;28;20392;-92
2022/06/30 06:10:36;;;;;;;19.85;5.22;;;25.90;99.90;;;;;;5070305;28;20032;-88
2022/06/30 06:13:03;;;;;;;14.43;5.40;;;25.90;99.90;;;;;;5074157;28;20017;-88
2022/06/30 06:15:29;;;;;;;15.00;5.03;;;26.00;99.90;;;;;;5066094;28;20460;-89
2022/06/30 06:17:55;;;;;;;14.63;4.82;;;26.10;99.90;;;;;;5074152;28;20115;-88
2022/06/30 06:20:20;;;;;;;18.63;4.90;;;26.30;99.90;;;;;;5080854;28;20021;-88
2022/06/30 06:22:46;;;;;;;12.50;4.82;;;26.60;99.90;;;;;;5073432;28;20029;-90
2022/06/30 06:25:15;;;;;;;19.63;4.90;;;26.80;99.90;;;;;;5059925;28;20021;-88
2022/06/30 06:27:41;;;;;;;19.05;5.57;;;26.90;99.90;;;;;;5073007;28;20020;-90
2022/06/30 06:30:09;;;;;;;10.80;4.50;;;26.90;99.90;;;;;;5076856;28;20029;-89
2022/06/30 06:32:36;;;;;;;17.60;5.45;;;26.90;99.90;;;;;;5074769;28;20021;-92
2022/06/30 06:35:02;;;;;;;14.13;6.15;;;26.90;99.90;;;;;;5081767;28;20027;-88
2022/06/30 06:37:28;;;;;;;20.85;7.00;;;26.90;99.90;;;;;;5079288;28;20036;-92
2022/06/30 06:39:54;;;;;;;24.70;6.28;;;26.80;99.90;;;;;;5058135;28;20082;-91
2022/06/30 06:42:19;;;;;;;27.55;6.43;;;26.60;99.90;;;;;;5076337;28;20020;-95
2022/06/30 06:44:47;;;;;;;21.60;7.13;;;26.40;99.90;;;;;;5052885;28;20144;-87
2022/06/30 06:47:15;;;;;;;19.67;5.50;;;26.40;99.90;;;;;;5053459;28;20087;-90
2022/06/30 06:49:41;;;;;;;13.13;5.28;;;26.50;99.90;;;;;;5047927;28;20028;-88
2022/06/30 06:52:07;;;;;;;13.02;4.78;;;26.60;99.90;;;;;;5054422;28;20112;-87
2022/06/30 06:54:33;;;;;;;18.85;5.22;;;26.70;99.90;;;;;;5057401;28;20455;-87
2022/06/30 06:56:59;;;;;;;11.13;4.30;;;26.80;99.90;;;;;;5060120;28;20037;-90
2022/06/30 06:59:24;;;;;;;13.68;4.95;;;26.90;99.90;;;;;;5037718;28;20040;-92
2022/06/30 07:01:50;;;;;;;15.75;4.28;;;27.00;99.90;;;;;;5043500;28;20055;-91
2022/06/30 07:04:15;;;;;;;19.77;5.55;;;27.10;99.90;;;;;;5066952;28;20027;-92
2022/06/30 07:06:43;;;;;;;12.82;5.03;;;27.10;99.90;;;;;;5061138;28;20036;-90
2022/06/30 07:09:08;;;;;;;15.73;4.55;;;27.20;99.90;;;;;;5037425;28;20090;-90
2022/06/30 07:11:34;;;;;;;12.32;4.68;;;27.30;99.90;;;;;;5060816;28;20487;-92
2022/06/30 07:14:00;;;;;;;12.00;4.20;;;27.50;99.90;;;;;;5066903;28;20083;-91
2022/06/30 07:16:25;;;;;;;16.35;4.95;;;27.50;99.90;;;;;;5041361;28;20127;-91
2022/06/30 07:18:51;;;;;;;13.15;4.20;;;27.60;99.90;;;;;;5050201;28;20024;-93
2022/06/30 07:21:17;;;;;;;10.85;3.70;;;27.60;99.90;;;;;;5068918;28;20024;-92
2022/06/30 07:23:43;;;;;;;12.80;4.13;;;27.60;99.90;;;;;;5069179;28;20021;-91
2022/06/30 07:26:11;;;;;;;13.60;4.60;;;27.60;99.90;;;;;;5063006;28;20299;-93
2022/06/30 07:28:37;;;;;;;15.45;3.88;;;27.60;99.90;;;;;;5051822;28;20250;-90
2022/06/30 07:31:02;;;;;;;11.10;3.60;;;27.70;99.90;;;;;;5065481;28;20599;-91
2022/06/30 07:33:28;;;;;;;10.32;3.75;;;27.70;99.90;;;;;;5071450;28;20029;-92
2022/06/30 07:35:54;;;;;;;10.68;3.88;;;27.80;99.90;;;;;;5058215;28;20028;-92
2022/06/30 07:38:20;;;;;;;16.60;5.20;;;27.90;99.90;;;;;;5038552;28;20412;-92
2022/06/30 07:40:45;;;;;;;12.40;4.47;;;28.00;99.90;;;;;;5037997;28;20025;-91
2022/06/30 07:43:11;;;;;;;21.17;5.25;;;27.70;99.90;;;;;;5034450;28;20033;-92
2022/06/30 07:45:37;;;;;;;18.70;5.10;;;27.60;99.90;;;;;;5054386;28;20052;-91
2022/06/30 07:48:03;;;;;;;18.15;5.75;;;27.60;99.90;;;;;;5072196;28;20029;-93
2022/06/30 07:50:31;;;;;;;18.20;5.10;;;27.60;99.90;;;;;;5059800;28;20078;-92
2022/06/30 07:52:56;;;;;;;23.65;6.13;;;27.50;99.90;;;;;;5055539;28;20641;-90
2022/06/30 07:55:22;;;;;;;19.02;5.70;;;27.50;99.90;;;;;;5076726;28;20055;-92
2022/06/30 07:57:48;;;;;;;19.35;5.28;;;27.30;99.90;;;;;;5091849;28;20036;-94
2022/06/30 08:00:15;;;;;;;27.50;5.82;;;27.30;99.90;;;;;;5061525;28;20391;-91
2022/06/30 08:02:41;;;;;;;33.85;5.82;;;27.30;99.90;;;;;;5072190;28;20028;-91
2022/06/30 08:05:08;;;;;;;17.52;5.55;;;27.20;99.90;;;;;;5061705;28;20025;-91
2022/06/30 08:07:34;;;;;;;16.10;5.20;;;27.20;99.90;;;;;;5073697;28;20070;-91
2022/06/30 08:10:00;;;;;;;15.80;4.38;;;27.30;99.90;;;;;;5076489;28;20032;-92
2022/06/30 08:12:27;;;;;;;11.82;4.72;;;27.40;99.90;;;;;;5053684;28;20498;-90
2022/06/30 08:14:52;;;;;;;16.98;4.45;;;27.50;99.90;;;;;;5059445;28;20579;-89
2022/06/30 08:17:18;;;;;;;13.15;4.45;;;27.60;99.90;;;;;;5071890;28;20123;-88
2022/06/30 08:19:45;;;;;;;11.20;4.95;;;27.60;99.90;;;;;;5082846;28;20040;-89
2022/06/30 08:22:11;;;;;;;12.98;4.43;;;27.50;99.90;;;;;;5073144;28;20497;-90
2022/06/30 08:24:36;;;;;;;17.88;4.60;;;27.50;99.90;;;;;;5059246;28;20028;-91
2022/06/30 08:27:02;;;;;;;21.05;5.25;;;27.70;99.90;;;;;;5072887;28;20029;-89
2022/06/30 08:29:32;;;;;;;12.35;4.60;;;27.60;99.90;;;;;;5075707;28;20044;-89
2022/06/30 08:32:01;;;;;;;17.05;4.88;;;27.70;99.90;;;;;;5089277;28;20020;-89
2022/06/30 08:34:27;;;;;;;14.05;4.68;;;27.80;99.90;;;;;;5067753;28;20120;-89
2022/06/30 08:36:52;;;;;;;18.25;5.05;;;27.90;99.90;;;;;;5052257;28;20483;-90
2022/06/30 08:42:02;;;;;;;17.00;4.75;;;27.80;99.90;;;;;;5073381;28;20035;-88
2022/06/30 08:44:35;;;;;;;19.17;4.78;;;28.00;99.90;;;;;;5057347;28;20397;-89
2022/06/30 08:47:03;;;;;;;14.07;4.57;;;28.20;99.90;;;;;;5073936;28;20475;-89
2022/06/30 08:49:30;;;;;;;22.45;5.45;;;28.30;99.90;;;;;;5068008;28;20028;-89
2022/06/30 08:51:57;;;;;;;13.98;5.10;;;28.50;99.90;;;;;;5087904;28;20398;-88
2022/06/30 08:54:25;;;;;;;17.63;5.50;;;28.50;99.90;;;;;;5068691;28;20051;-88
2022/06/30 08:56:52;;;;;;;24.23;5.13;;;28.40;99.90;;;;;;5086556;28;20020;-86
2022/06/30 08:59:19;;;;;;;17.17;5.25;;;28.30;99.90;;;;;;5067983;28;20028;-87
2022/06/30 09:01:45;;;;;;;21.48;5.20;;;28.10;99.90;;;;;;5060537;28;20021;-87
2022/06/30 09:04:11;;;;;;;14.57;5.18;;;28.00;99.90;;;;;;5073475;28;20496;-86
2022/06/30 09:06:37;;;;;;;19.95;5.03;;;27.90;99.90;;;;;;5081217;28;20154;-85
2022/06/30 09:09:06;;;;;;;16.58;4.05;;;28.00;99.90;;;;;;5072055;28;20099;-89
2022/06/30 09:12:07;;;;;;;17.02;4.95;;;28.00;99.90;;;;;;5059219;28;20153;-86
2022/06/30 09:14:40;;;;;;;14.70;4.70;;;28.10;99.90;;;;;;5085172;28;20583;-87
2022/06/30 09:17:13;;;;;;;18.75;4.88;;;28.10;99.90;;;;;;5048136;28;20037;-86
2022/06/30 09:20:00;;;;;;;13.90;3.85;;;28.10;99.90;;;;;;5075388;28;20035;-85
2022/06/30 09:22:34;;;;;;;17.10;4.30;;;28.10;99.90;;;;;;5089093;28;20077;-86
2022/06/30 09:25:03;;;;;;;12.30;4.63;;;28.10;99.90;;;;;;5080193;28;20029;-88
2022/06/30 09:27:31;;;;;;;14.70;4.50;;;28.00;99.90;;;;;;5054509;28;20086;-86
2022/06/30 09:30:04;;;;;;;14.90;4.30;;;28.00;99.90;;;;;;5077773;28;20028;-87
2022/06/30 09:32:50;;;;;;;13.85;4.80;;;28.10;99.90;;;;;;5070989;28;20021;-88
2022/06/30 09:35:18;;;;;;;15.55;4.80;;;28.10;99.90;;;;;;5083222;28;20079;-86
2022/06/30 09:37:44;;;;;;;18.23;4.60;;;28.20;99.90;;;;;;5079359;28;20036;-86
2022/06/30 09:40:10;;;;;;;18.88;4.60;;;28.40;99.90;;;;;;5057073;28;20021;-86
2022/06/30 09:42:47;;;;;;;16.50;4.40;;;28.40;99.90;;;;;;5053973;28;20466;-87
2022/06/30 09:45:15;;;;;;;12.25;4.80;;;28.40;99.90;;;;;;5061498;28;20044;-87
2022/06/30 09:48:01;;;;;;;17.55;4.72;;;28.20;99.90;;;;;;5089006;28;20056;-86
2022/06/30 09:50:26;;;;;;;15.60;4.60;;;28.30;99.90;;;;;;5076484;28;20451;-83
2022/06/30 09:53:09;;;;;;;15.95;4.35;;;28.40;99.90;;;;;;5072313;28;20024;-88
2022/06/30 09:55:45;;;;;;;13.25;4.00;;;28.60;99.90;;;;;;5063573;28;20301;-87
2022/06/30 09:58:30;;;;;;;14.82;4.10;;;28.40;99.90;;;;;;5032508;28;20392;-87
2022/06/30 10:00:56;;;;;;;12.55;4.25;;;28.30;99.90;;;;;;5085602;28;20025;-89
2022/06/30 10:03:22;;;;;;;18.73;4.28;;;28.40;99.90;;;;;;5074082;28;20390;-87
2022/06/30 10:05:50;;;;;;;17.13;4.93;;;28.10;99.90;;;;;;5079802;28;20032;-86
2022/06/30 10:08:17;;;;;;;15.93;4.40;;;28.10;99.90;;;;;;5042314;28;20032;-87
2022/06/30 10:10:43;;;;;;;15.45;3.92;;;28.30;99.90;;;;;;5050529;28;20501;-88
2022/06/30 10:13:17;;;;;;;14.90;4.70;;;28.40;99.90;;;;;;5056147;28;20487;-88
2022/06/30 10:15:54;;;;;;;11.40;3.97;;;28.20;99.90;;;;;;5067346;28;20098;-84
2022/06/30 10:18:24;;;;;;;14.70;3.90;;;28.30;99.90;;;;;;5075897;28;20124;-86
2022/06/30 10:20:50;;;;;;;17.67;4.32;;;28.70;99.90;;;;;;5061157;28;20554;-86
2022/06/30 10:23:21;;;;;;;12.73;4.60;;;28.60;99.90;;;;;;5073796;28;20107;-87
2022/06/30 10:25:48;;;;;;;14.30;4.80;;;28.60;99.90;;;;;;5085802;28;20035;-88
2022/06/30 10:28:17;;;;;;;9.55;3.72;;;28.60;99.90;;;;;;5093916;28;20089;-87
2022/06/30 10:31:15;;;;;;;18.80;4.68;;;28.50;99.90;;;;;;5085392;28;20069;-88
2022/06/30 10:33:47;;;;;;;13.43;4.38;;;28.30;99.90;;;;;;5091275;28;20059;-85
2022/06/30 10:36:22;;;;;;;9.27;3.72;;;28.30;99.90;;;;;;5059587;28;20052;-85
2022/06/30 10:39:09;;;;;;;24.08;4.63;;;28.40;99.90;;;;;;5060225;28;20039;-87
2022/06/30 10:41:44;;;;;;;13.50;4.25;;;28.70;99.90;;;;;;5059367;28;20530;-87
2022/06/30 10:44:22;;;;;;;16.65;4.55;;;28.50;99.90;;;;;;5076225;28;20037;-86
2022/06/30 10:46:48;;;;;;;12.93;3.55;;;28.50;99.90;;;;;;5058587;28;20058;-87
2022/06/30 10:49:14;;;;;;;12.00;4.45;;;28.30;99.90;;;;;;5058002;28;20108;-86
2022/06/30 10:51:41;;;;;;;11.43;4.07;;;28.20;99.90;;;;;;5071663;28;20111;-87
2022/06/30 10:54:07;;;;;;;11.15;3.97;;;28.20;99.90;;;;;;5089915;28;20042;-87
2022/06/30 10:56:54;;;;;;;15.50;4.22;;;28.20;99.90;;;;;;5076294;28;20021;-87
2022/06/30 10:59:36;;;;;;;13.18;4.60;;;28.00;99.90;;;;;;5076721;28;20065;-88
2022/06/30 11:02:09;;;;;;;18.50;4.80;;;28.20;99.90;;;;;;5049288;28;20027;-85
2022/06/30 11:04:36;;;;;;;10.25;4.20;;;28.10;99.90;;;;;;5059593;28;20040;-87
2022/06/30 11:07:07;;;;;;;13.55;4.70;;;28.30;99.90;;;;;;5087683;28;20111;-89
2022/06/30 11:09:47;;;;;;;15.40;4.28;;;28.10;99.90;;;;;;5059005;28;20028;-87
2022/06/30 11:12:18;;;;;;;13.88;4.25;;;28.10;99.90;;;;;;5074516;28;20554;-87
2022/06/30 11:14:49;;;;;;;16.23;5.28;;;28.20;99.90;;;;;;5077157;28;20032;-90
2022/06/30 11:17:21;;;;;;;15.80;4.57;;;28.10;99.90;;;;;;5091205;28;20027;-87
2022/06/30 11:19:47;;;;;;;22.38;5.13;;;27.80;99.90;;;;;;5067200;28;20027;-89
2022/06/30 11:22:15;;;;;;;14.68;5.05;;;28.10;99.90;;;;;;5074200;28;20032;-89
2022/06/30 11:24:43;;;;;;;13.43;4.93;;;28.10;99.90;;;;;;5082251;28;20181;-88
2022/06/30 11:27:24;;;;;;;18.27;4.25;;;28.10;99.90;;;;;;5091871;28;20023;-87
2022/06/30 11:30:03;;;;;;;22.55;5.20;;;28.10;99.90;;;;;;5086395;28;20027;-87
2022/06/30 11:32:29;;;;;;;24.52;5.38;;;28.10;99.90;;;;;;5072519;28;20474;-85
2022/06/30 11:34:56;;;;;;;11.93;4.68;;;28.30;99.90;;;;;;5065912;28;20395;-85
2022/06/30 11:37:23;;;;;;;15.02;4.80;;;28.40;99.90;;;;;;5049364;28;20462;-87
2022/06/30 11:40:09;;;;;;;16.13;4.82;;;28.70;99.90;;;;;;5069687;28;20487;-86
2022/06/30 11:42:39;;;;;;;17.90;4.45;;;28.90;99.90;;;;;;5071581;28;20040;-90
2022/06/30 11:45:24;;;;;;;15.60;4.55;;;28.90;99.90;;;;;;5062208;28;20524;-87
2022/06/30 11:48:00;;;;;;;14.18;5.40;;;28.90;99.90;;;;;;5054283;28;20410;-88
2022/06/30 11:50:26;;;;;;;14.10;5.20;;;28.80;99.90;;;;;;5079136;28;20032;-85
2022/06/30 11:52:55;;;;;;;14.10;5.30;;;28.70;99.90;;;;;;5086881;28;20028;-86
2022/06/30 11:55:25;;;;;;;21.67;5.25;;;28.70;99.90;;;;;;5082055;28;20028;-85
2022/06/30 11:57:51;;;;;;;15.98;5.32;;;28.90;99.90;;;;;;5086727;28;21031;-87
2022/06/30 12:00:22;;;;;;;17.98;5.43;;;28.60;99.90;;;;;;5063866;28;20028;-85
2022/06/30 12:02:48;;;;;;;19.40;5.55;;;28.40;99.90;;;;;;5086611;28;20020;-84
2022/06/30 12:05:17;;;;;;;14.25;5.32;;;28.70;99.90;;;;;;5076833;28;20024;-88
2022/06/30 12:07:44;;;;;;;21.95;5.47;;;30.10;99.90;;;;;;5061093;28;20059;-92
2022/06/30 12:10:13;;;;;;;22.10;4.68;;;32.20;99.90;;;;;;5069038;28;20404;-95
2022/06/30 12:12:39;;;;;;;13.60;4.70;;;33.50;99.90;;;;;;5068604;28;20028;-87
2022/06/30 12:15:16;;;;;;;17.05;4.75;;;33.90;99.90;;;;;;5059911;28;20391;-88
2022/06/30 12:17:45;;;;;;;13.45;4.20;;;33.80;99.90;;;;;;5069837;28;20044;-87
2022/06/30 12:20:14;;;;;;;19.20;4.95;;;34.00;99.90;;;;;;5063241;28;20494;-80
2022/06/30 12:22:45;;;;;;;19.38;4.63;;;33.60;99.90;;;;;;5051567;28;20043;-85
2022/06/30 12:25:13;;;;;;;14.50;4.72;;;34.20;99.90;;;;;;5077112;28;20119;-87
2022/06/30 12:27:43;;;;;;;16.52;5.18;;;33.70;99.90;;;;;;5068190;28;20031;-85
2022/06/30 12:30:15;;;;;;;18.63;4.05;;;33.50;99.90;;;;;;5063398;28;20119;-87
2022/06/30 12:32:42;;;;;;;20.73;4.28;;;33.60;99.90;;;;;;5086321;28;20020;-88
2022/06/30 12:35:12;;;;;;;12.13;3.85;;;34.60;99.90;;;;;;5063517;28;20043;-86
2022/06/30 12:37:40;;;;;;;15.90;4.18;;;34.90;99.90;;;;;;5060267;28;20177;-90
2022/06/30 12:40:11;;;;;;;17.50;4.18;;;35.10;99.90;;;;;;5072449;28;20079;-88
2022/06/30 12:42:51;;;;;;;11.18;4.35;;;34.90;99.90;;;;;;5051867;28;20119;-91
2022/06/30 12:45:44;;;;;;;15.65;4.47;;;35.10;99.90;;;;;;5077568;28;20131;-87
2022/06/30 12:48:11;;;;;;;16.00;4.70;;;35.60;99.90;;;;;;5047706;28;20574;-87
2022/06/30 12:50:39;;;;;;;15.75;4.00;;;35.00;99.90;;;;;;5046373;28;20033;-86
2022/06/30 12:53:24;;;;;;;11.95;3.70;;;36.10;99.90;;;;;;5047780;28;20059;-84